Time;durP1;ratioP1;P1;durP2;ratioP2;P2;SDS_P1;SDS_P2;PMS_P1;PMS_P2;Temp;Humidity;BMP_temperature;BMP_pressure;BME280_temperature;BME280_humidity;BME280_pressure;Samples;Min_cycle;Max_cycle;Signal;HPM_P1;HPM_P2
2022/08/05 00:00:57;;;;;;;7.57;4.30;;;24.20;99.90;;;25.15;100.00;97892.50;5056268;28;20863;-81
2022/08/05 00:03:46;;;;;;;10.93;3.90;;;24.20;99.90;;;25.14;100.00;97898.94;5058604;28;20795;-81
2022/08/05 00:06:17;;;;;;;8.40;5.80;;;24.20;99.90;;;25.16;100.00;97891.44;5060284;28;20428;-81
2022/08/05 00:09:00;;;;;;;7.93;4.00;;;24.20;99.90;;;25.12;100.00;97901.09;5060216;28;20471;-81
2022/08/05 00:11:28;;;;;;;10.90;3.90;;;24.20;99.90;;;25.19;100.00;97914.94;5060514;28;20456;-81
2022/08/05 00:14:02;;;;;;;9.60;4.73;;;24.10;99.90;;;25.21;100.00;97905.53;5059512;28;20485;-80
2022/08/05 00:16:46;;;;;;;8.70;4.50;;;24.10;99.90;;;25.17;100.00;97874.28;5057804;28;20543;-81
2022/08/05 00:19:22;;;;;;;14.63;4.43;;;24.20;99.90;;;25.17;100.00;97872.38;5060793;28;20455;-80
2022/08/05 00:22:01;;;;;;;9.93;4.27;;;24.00;99.90;;;25.16;100.00;97873.50;5059079;28;20527;-81
2022/08/05 00:24:31;;;;;;;7.20;3.73;;;24.10;99.90;;;25.13;100.00;97884.75;5057080;28;20518;-81
2022/08/05 00:27:01;;;;;;;5.80;3.43;;;24.00;99.90;;;25.04;100.00;97867.72;5054971;28;20472;-81
2022/08/05 00:29:37;;;;;;;7.30;4.13;;;24.00;99.90;;;25.01;100.00;97825.47;5054767;28;20468;-81
2022/08/05 00:32:11;;;;;;;8.00;4.30;;;24.00;99.90;;;24.95;100.00;97843.47;5055107;28;20460;-81
2022/08/05 00:34:45;;;;;;;9.03;3.57;;;24.00;99.90;;;24.89;100.00;97803.66;5056228;28;20490;-81
2022/08/05 00:37:35;;;;;;;7.57;3.97;;;23.90;99.90;;;24.76;100.00;97793.63;5053034;28;21016;-81
2022/08/05 00:40:24;;;;;;;12.87;5.10;;;23.80;99.90;;;24.73;100.00;97762.88;5058093;28;20461;-80
2022/08/05 00:43:00;;;;;;;7.33;3.90;;;23.80;99.90;;;24.72;100.00;97744.44;5054237;28;20478;-80
2022/08/05 00:45:30;;;;;;;6.03;3.50;;;23.70;99.90;;;24.73;100.00;97717.41;5054768;28;20468;-81
2022/08/05 00:48:15;;;;;;;12.30;3.60;;;23.80;99.90;;;24.72;100.00;97688.25;5059993;28;20498;-81
2022/08/05 00:50:47;;;;;;;15.23;4.40;;;23.70;99.90;;;24.71;100.00;97681.34;5057295;28;21512;-81
2022/08/05 00:53:19;;;;;;;9.27;4.20;;;23.70;99.90;;;24.71;100.00;97690.16;5055817;28;20523;-81
2022/08/05 00:56:09;;;;;;;5.30;3.70;;;23.60;99.90;;;24.64;100.00;97699.63;5055845;28;20484;-81
2022/08/05 00:58:39;;;;;;;9.27;3.90;;;23.60;99.90;;;24.52;100.00;97678.63;5055427;28;20461;-81
2022/08/05 01:01:14;;;;;;;6.80;3.70;;;23.60;99.90;;;24.49;100.00;97666.63;5055076;28;20478;-81
2022/08/05 01:04:05;;;;;;;9.90;3.60;;;23.50;99.90;;;24.44;100.00;97671.22;5054814;28;20664;-81
2022/08/05 01:06:41;;;;;;;4.63;3.40;;;23.40;99.90;;;24.45;100.00;97662.91;5057369;28;21025;-81
2022/08/05 01:09:16;;;;;;;8.00;3.87;;;23.40;99.90;;;24.35;100.00;97665.72;5056677;28;20598;-80
2022/08/05 01:11:52;;;;;;;11.10;3.97;;;23.40;99.90;;;24.39;100.00;97674.75;5055444;28;20472;-81
2022/08/05 01:14:31;;;;;;;6.80;3.70;;;23.30;99.90;;;24.31;100.00;97690.63;5058503;28;20522;-81
2022/08/05 01:17:07;;;;;;;10.30;3.37;;;23.30;99.90;;;24.14;100.00;97683.03;5054801;28;20464;-80
2022/08/05 01:19:45;;;;;;;8.10;3.40;;;23.30;99.90;;;24.11;100.00;97699.63;5057407;28;21019;-81
2022/08/05 01:22:54;;;;;;;10.33;3.40;;;23.20;99.90;;;24.06;100.00;97713.81;5057297;28;20488;-81
2022/08/05 01:25:58;;;;;;;3.77;2.93;;;23.20;99.90;;;23.96;100.00;97740.63;5054717;28;20468;-81
2022/08/05 01:28:36;;;;;;;5.30;3.70;;;23.20;99.90;;;23.89;100.00;97782.09;5054379;28;20999;-81
2022/08/05 01:31:22;;;;;;;13.10;3.67;;;23.10;99.90;;;23.85;100.00;97781.06;5055922;28;20891;-81
2022/08/05 01:34:01;;;;;;;5.80;3.90;;;22.90;99.90;;;23.89;100.00;97798.13;5055680;28;20855;-81
2022/08/05 01:36:39;;;;;;;5.63;3.40;;;22.90;99.90;;;23.92;100.00;97819.75;5051772;28;21271;-81
2022/08/05 01:39:18;;;;;;;6.77;3.20;;;23.00;99.90;;;23.94;100.00;97828.28;5054721;28;20569;-81
2022/08/05 01:42:13;;;;;;;7.93;3.67;;;23.00;99.90;;;23.92;100.00;97810.91;5054814;28;20465;-80
2022/08/05 01:44:46;;;;;;;8.90;3.40;;;23.00;99.90;;;23.90;100.00;97799.72;5053636;28;20472;-81
2022/08/05 01:47:24;;;;;;;3.47;3.10;;;23.00;99.90;;;23.95;100.00;97813.06;5054091;28;20479;-81
2022/08/05 01:50:12;;;;;;;4.17;2.90;;;23.00;99.90;;;23.85;100.00;97845.97;5053354;28;20468;-80
2022/08/05 01:52:47;;;;;;;5.63;2.90;;;23.00;99.90;;;23.73;100.00;97836.72;5054882;28;20463;-80
2022/08/05 01:55:20;;;;;;;6.17;3.00;;;23.00;99.90;;;23.66;100.00;97854.91;5054685;28;21311;-81
2022/08/05 01:57:52;;;;;;;6.60;2.90;;;22.90;99.90;;;23.61;100.00;97860.25;5053494;28;20835;-81
2022/08/05 02:00:50;;;;;;;4.83;2.50;;;22.70;99.90;;;23.60;100.00;97866.69;5055180;28;20545;-81
2022/08/05 02:03:25;;;;;;;4.47;2.27;;;22.80;99.90;;;23.52;100.00;97849.38;5054511;28;20508;-81
2022/08/05 02:06:01;;;;;;;6.30;2.87;;;22.80;99.90;;;23.52;100.00;97831.50;5054704;28;20460;-81
2022/08/05 02:08:51;;;;;;;8.33;3.20;;;22.70;99.90;;;23.59;100.00;97809.03;5054150;28;20473;-80
2022/08/05 02:11:37;;;;;;;6.30;2.90;;;22.70;99.90;;;23.58;100.00;97760.16;5056145;28;20460;-81
2022/08/05 02:14:25;;;;;;;14.23;3.07;;;22.70;99.90;;;23.50;100.00;97752.72;5056688;28;20946;-81
2022/08/05 02:17:05;;;;;;;6.70;3.20;;;22.60;99.90;;;23.42;100.00;97735.44;5056095;28;20545;-81
2022/08/05 02:19:43;;;;;;;5.47;3.13;;;22.60;99.90;;;23.36;100.00;97733.84;5053044;28;20955;-81
2022/08/05 02:22:21;;;;;;;5.00;3.67;;;22.40;99.90;;;23.31;100.00;97728.53;5056370;28;20514;-81
2022/08/05 02:25:02;;;;;;;9.40;3.17;;;22.40;99.90;;;23.26;100.00;97709.06;5057719;28;20452;-81
2022/08/05 02:27:37;;;;;;;3.90;2.90;;;22.30;99.90;;;23.21;100.00;97717.94;5055650;28;20554;-81
2022/08/05 02:30:35;;;;;;;6.40;3.50;;;22.30;99.90;;;23.09;100.00;97736.13;5054709;28;20548;-81
2022/08/05 02:33:08;;;;;;;5.00;2.80;;;22.30;99.90;;;23.05;100.00;97767.88;5051902;28;20476;-81
2022/08/05 02:35:41;;;;;;;4.40;2.37;;;22.30;99.90;;;22.96;100.00;97870.09;5057966;28;20517;-81
2022/08/05 02:38:30;;;;;;;5.20;2.63;;;22.20;99.90;;;22.91;100.00;97956.25;5055387;28;20487;-81
2022/08/05 02:41:05;;;;;;;7.53;2.70;;;22.10;99.90;;;22.81;100.00;97963.47;5057668;28;20474;-81
2022/08/05 02:43:48;;;;;;;3.33;1.97;;;21.90;99.90;;;22.74;100.00;97979.72;5060133;28;20462;-81
2022/08/05 02:46:35;;;;;;;3.00;2.63;;;22.00;99.90;;;22.86;100.00;97987.47;5059122;28;20461;-81
2022/08/05 02:49:28;;;;;;;8.07;2.87;;;22.00;99.90;;;22.90;100.00;97993.88;5057089;28;20556;-81
2022/08/05 02:52:08;;;;;;;8.53;2.93;;;22.10;99.90;;;22.80;100.00;97989.34;5059349;28;20459;-81
2022/08/05 02:54:42;;;;;;;5.03;2.60;;;22.10;99.90;;;22.86;100.00;98003.47;5058254;28;20904;-81
2022/08/05 02:57:21;;;;;;;6.50;2.80;;;22.10;99.90;;;22.82;100.00;97991.75;5058914;28;20519;-81
2022/08/05 03:00:14;;;;;;;6.43;3.20;;;22.00;99.90;;;22.89;100.00;97962.94;5062971;28;20536;-81
2022/08/05 03:02:47;;;;;;;3.60;2.37;;;22.00;99.90;;;22.89;100.00;97928.25;5059929;28;20458;-81
2022/08/05 03:05:19;;;;;;;5.20;3.47;;;22.10;99.90;;;22.84;100.00;97880.28;5056448;28;20966;-81
2022/08/05 03:08:09;;;;;;;4.10;2.90;;;22.00;99.90;;;22.77;100.00;97850.44;5056709;28;20480;-81
2022/08/05 03:10:42;;;;;;;9.47;6.07;;;22.00;99.90;;;22.77;100.00;97829.09;5059737;28;20479;-82
2022/08/05 03:13:31;;;;;;;8.00;3.60;;;22.00;99.90;;;22.82;100.00;97815.72;5058754;28;21171;-81
2022/08/05 03:16:21;;;;;;;4.97;3.40;;;22.00;99.90;;;22.75;100.00;97778.69;5057074;28;20569;-81
2022/08/05 03:18:50;;;;;;;6.23;3.43;;;22.00;99.90;;;22.78;100.00;97785.34;5056995;28;20532;-81
2022/08/05 03:21:21;;;;;;;72.20;37.93;;;22.00;99.90;;;22.74;100.00;97784.28;5059009;28;20474;-84
2022/08/05 03:23:57;;;;;;;8.20;4.23;;;22.00;99.90;;;22.77;100.00;97791.75;5060308;28;20475;-83
2022/08/05 03:26:27;;;;;;;9.00;3.47;;;22.00;99.90;;;22.83;100.00;97790.66;5057502;28;21006;-81
2022/08/05 03:29:00;;;;;;;6.87;2.83;;;22.00;99.90;;;22.85;100.00;97820.50;5058635;28;20456;-81
2022/08/05 03:31:30;;;;;;;7.20;3.40;;;22.00;99.90;;;22.83;100.00;97841.34;5057921;28;20812;-81
2022/08/05 03:34:19;;;;;;;4.97;3.77;;;22.00;99.90;;;22.84;100.00;97835.72;5060665;28;20436;-81
2022/08/05 03:36:53;;;;;;;5.10;3.20;;;22.00;99.90;;;22.85;100.00;97858.66;5056802;28;20492;-81
2022/08/05 03:39:23;;;;;;;5.17;3.00;;;22.00;99.90;;;22.82;100.00;97874.41;5055268;28;20566;-81
2022/08/05 03:41:55;;;;;;;5.20;3.63;;;22.00;99.90;;;22.81;100.00;97910.13;5057330;28;20469;-81
2022/08/05 03:44:24;;;;;;;22.00;13.70;;;22.00;99.90;;;22.82;100.00;97901.06;5059270;28;20471;-82
2022/08/05 03:46:57;;;;;;;8.63;3.33;;;21.90;99.90;;;22.85;100.00;97905.84;5056837;28;20459;-82
2022/08/05 03:49:27;;;;;;;4.07;3.20;;;22.00;99.90;;;22.84;100.00;97937.06;5057873;28;20476;-81
2022/08/05 03:52:06;;;;;;;7.37;3.20;;;22.00;99.90;;;22.78;100.00;97959.47;5059807;28;20804;-81
2022/08/05 03:55:02;;;;;;;8.10;3.17;;;21.90;99.90;;;22.77;100.00;97995.19;5058548;28;21028;-81
2022/08/05 03:57:56;;;;;;;6.67;3.50;;;21.90;99.90;;;22.76;100.00;97960.81;5059817;28;20480;-81
2022/08/05 04:00:30;;;;;;;10.20;3.00;;;22.00;99.90;;;22.69;100.00;97939.75;5059395;28;20904;-81
2022/08/05 04:03:03;;;;;;;8.20;3.23;;;21.90;99.90;;;22.74;100.00;97904.28;5059295;28;20964;-81
2022/08/05 04:05:36;;;;;;;6.77;3.47;;;21.80;99.90;;;22.75;100.00;97900.53;5058861;28;20932;-82
2022/08/05 04:08:12;;;;;;;5.03;3.27;;;21.90;99.90;;;22.70;100.00;97896.00;5059629;28;20546;-85
2022/08/05 04:11:02;;;;;;;4.63;3.63;;;21.90;99.90;;;22.71;100.00;97912.81;5061196;28;20940;-81
2022/08/05 04:13:33;;;;;;;4.83;3.30;;;21.70;99.90;;;22.63;100.00;97929.34;5060002;28;20448;-83
2022/08/05 04:16:18;;;;;;;6.60;4.37;;;21.80;99.90;;;22.62;100.00;97960.53;5059264;28;20496;-81
2022/08/05 04:19:00;;;;;;;4.73;3.30;;;21.70;99.90;;;22.62;100.00;97989.03;5060719;28;20500;-80
2022/08/05 04:21:29;;;;;;;3.93;3.47;;;21.60;99.90;;;22.56;100.00;98010.34;5059576;28;20489;-81
2022/08/05 04:24:20;;;;;;;7.50;3.60;;;21.70;99.90;;;22.58;100.00;98004.78;5060119;28;20531;-80
2022/08/05 04:26:50;;;;;;;8.27;3.70;;;21.70;99.90;;;22.54;100.00;97963.69;5058866;28;20956;-80
2022/08/05 04:29:19;;;;;;;4.07;3.30;;;21.70;99.90;;;22.52;100.00;97966.66;5062160;28;20437;-80
2022/08/05 04:31:48;;;;;;;11.03;3.70;;;21.70;99.90;;;22.49;100.00;97977.81;5059749;28;20453;-80
2022/08/05 04:34:17;;;;;;;6.30;3.83;;;21.50;99.90;;;22.51;100.00;97969.56;5058948;28;20511;-81
2022/08/05 04:37:02;;;;;;;4.10;3.70;;;21.60;99.90;;;22.50;100.00;97971.44;5058320;28;20504;-81
2022/08/05 04:39:33;;;;;;;5.13;3.10;;;21.50;99.90;;;22.31;100.00;97991.66;5057944;28;20449;-80
2022/08/05 04:42:03;;;;;;;5.70;3.80;;;21.50;99.90;;;22.22;100.00;98003.09;5060723;28;20447;-81
2022/08/05 04:44:32;;;;;;;5.70;3.30;;;21.40;99.90;;;22.18;100.00;98023.34;5059943;28;20452;-80
2022/08/05 04:47:01;;;;;;;6.13;3.80;;;21.30;99.90;;;22.20;100.00;97990.03;5059781;28;20498;-80
2022/08/05 04:49:39;;;;;;;6.07;3.60;;;21.40;99.90;;;22.25;100.00;97979.38;5058839;28;20448;-80
2022/08/05 04:52:28;;;;;;;5.23;3.30;;;21.30;99.90;;;22.21;100.00;97986.31;5060002;28;20805;-80
2022/08/05 04:55:03;;;;;;;5.07;3.53;;;21.40;99.90;;;22.10;100.00;97990.00;5059025;28;20896;-80
2022/08/05 04:57:45;;;;;;;7.70;4.13;;;21.30;99.90;;;22.06;100.00;98011.06;5058659;28;20625;-80
2022/08/05 05:00:21;;;;;;;8.73;4.80;;;21.20;99.90;;;22.14;100.00;97991.09;5059667;28;20460;-80
2022/08/05 05:02:51;;;;;;;8.43;3.73;;;21.30;99.90;;;22.19;100.00;97982.28;5061067;28;20452;-81
2022/08/05 05:05:20;;;;;;;4.80;3.80;;;21.20;99.90;;;22.21;100.00;97975.66;5060999;28;20532;-81
2022/08/05 05:08:00;;;;;;;8.93;4.37;;;21.20;99.90;;;22.26;100.00;97978.31;5061855;28;20452;-80
2022/08/05 05:10:40;;;;;;;9.40;4.27;;;21.30;99.90;;;22.26;100.00;97957.00;5060793;28;20503;-80
2022/08/05 05:13:23;;;;;;;8.17;5.27;;;21.30;99.90;;;22.27;100.00;97953.28;5059738;28;20449;-81
2022/08/05 05:15:51;;;;;;;7.00;3.90;;;21.30;99.90;;;22.25;100.00;97962.63;5061878;28;20449;-81
2022/08/05 05:18:33;;;;;;;4.90;3.73;;;21.40;99.90;;;22.27;100.00;97947.97;5062295;28;20491;-80
2022/08/05 05:21:03;;;;;;;5.20;4.13;;;21.40;99.90;;;22.28;100.00;97943.44;5061422;28;20449;-81
2022/08/05 05:23:33;;;;;;;6.27;4.23;;;21.40;99.90;;;22.28;100.00;97927.44;5060095;28;20855;-80
2022/08/05 05:26:23;;;;;;;8.63;4.37;;;21.30;99.90;;;22.21;100.00;97922.38;5055610;28;20486;-80
2022/08/05 05:29:01;;;;;;;6.50;4.20;;;21.30;99.90;;;22.18;100.00;97906.91;5056514;28;20969;-80
2022/08/05 05:31:43;;;;;;;7.73;3.57;;;21.20;99.90;;;22.17;100.00;97905.31;5056865;28;20452;-80
2022/08/05 05:34:13;;;;;;;9.20;4.30;;;21.10;99.90;;;22.20;100.00;97866.69;5057732;28;20506;-81
2022/08/05 05:36:43;;;;;;;7.00;4.53;;;21.30;99.90;;;22.18;100.00;97874.94;5055981;28;20464;-80
2022/08/05 05:39:14;;;;;;;7.40;4.50;;;21.20;99.90;;;22.10;100.00;97872.00;5059877;28;20459;-80
2022/08/05 05:41:48;;;;;;;5.67;4.07;;;21.20;99.90;;;22.13;100.00;97882.13;5061191;28;20444;-80
2022/08/05 05:44:22;;;;;;;9.10;3.87;;;21.10;99.90;;;22.15;100.00;97883.44;5061147;28;20917;-80
2022/08/05 05:47:05;;;;;;;6.17;4.03;;;21.20;99.90;;;22.22;100.00;97899.16;5059369;28;20443;-80
2022/08/05 05:49:50;;;;;;;11.80;4.03;;;21.20;99.90;;;22.24;100.00;97878.41;5062564;28;20428;-81
2022/08/05 05:52:24;;;;;;;6.73;3.83;;;21.30;99.90;;;22.30;100.00;97875.47;5060701;28;20498;-80
2022/08/05 05:55:00;;;;;;;11.63;4.27;;;21.30;99.90;;;22.32;100.00;97884.00;5060682;28;20476;-81
2022/08/05 05:57:36;;;;;;;5.27;3.70;;;21.30;99.90;;;22.31;100.00;97879.75;5059290;28;20516;-81
2022/08/05 06:00:22;;;;;;;6.23;4.27;;;21.30;99.90;;;22.33;100.00;97882.13;5058258;28;20475;-80
2022/08/05 06:03:01;;;;;;;12.60;4.47;;;21.40;99.90;;;22.30;100.00;97912.78;5059858;28;20492;-80
2022/08/05 06:05:31;;;;;;;9.83;4.00;;;21.30;99.90;;;22.36;100.00;97921.56;5056159;28;20465;-81
2022/08/05 06:08:01;;;;;;;4.60;4.00;;;21.40;99.90;;;22.37;100.00;97920.50;5059279;28;20472;-81
2022/08/05 06:10:32;;;;;;;5.00;3.57;;;21.40;99.90;;;22.37;100.00;97923.97;5058373;28;20950;-80
2022/08/05 06:13:05;;;;;;;5.30;3.03;;;21.50;99.90;;;22.31;100.00;97926.91;5059045;28;20450;-80
2022/08/05 06:15:35;;;;;;;7.00;3.07;;;21.50;99.90;;;22.26;100.00;97932.22;5060439;28;20932;-81
2022/08/05 06:18:23;;;;;;;7.83;3.87;;;21.40;99.90;;;22.21;100.00;97938.38;5060548;28;20575;-81
2022/08/05 06:21:00;;;;;;;5.83;2.90;;;21.50;99.90;;;22.14;100.00;97945.00;5063153;28;20893;-80
2022/08/05 06:23:28;;;;;;;4.50;2.80;;;21.40;99.90;;;22.16;100.00;97953.53;5064029;28;20468;-80
2022/08/05 06:26:11;;;;;;;6.03;2.90;;;21.40;99.90;;;22.20;100.00;97960.72;5066763;28;20494;-81
2022/08/05 06:28:50;;;;;;;4.90;3.20;;;21.40;99.90;;;22.26;100.00;97966.88;5062178;28;20925;-80
2022/08/05 06:31:19;;;;;;;8.33;2.97;;;21.40;99.90;;;22.31;100.00;97966.88;5063860;28;20781;-80
2022/08/05 06:33:50;;;;;;;3.50;2.90;;;21.40;99.90;;;22.30;100.00;97975.94;5063359;28;20520;-80
2022/08/05 06:36:36;;;;;;;5.67;3.50;;;21.40;99.90;;;22.31;100.00;97973.03;5063448;28;20551;-80
2022/08/05 06:39:25;;;;;;;5.70;3.23;;;21.50;99.90;;;22.30;100.00;97984.72;5063528;28;20581;-80
2022/08/05 06:41:57;;;;;;;10.33;3.50;;;21.50;99.90;;;22.31;100.00;97975.69;5064542;28;20449;-80
2022/08/05 06:44:29;;;;;;;10.40;3.30;;;21.50;99.90;;;22.35;100.00;97987.38;5064076;28;20948;-80
2022/08/05 06:46:58;;;;;;;7.83;3.10;;;21.40;99.90;;;22.39;100.00;97987.66;5063262;28;20842;-80
2022/08/05 06:49:30;;;;;;;4.80;4.03;;;21.50;99.90;;;22.41;100.00;97985.56;5062543;28;20522;-81
2022/08/05 06:52:19;;;;;;;11.93;3.27;;;21.40;99.90;;;22.46;100.00;97988.22;5063007;28;20444;-80
2022/08/05 06:55:07;;;;;;;6.70;3.23;;;21.50;99.90;;;22.45;100.00;97998.09;5062085;28;20466;-80
2022/08/05 06:57:35;;;;;;;5.73;3.17;;;21.60;99.90;;;22.44;100.00;97985.81;5062991;28;20514;-80
2022/08/05 07:00:25;;;;;;;4.40;3.23;;;21.60;99.90;;;22.45;100.00;97992.75;5062860;28;20549;-80
2022/08/05 07:02:56;;;;;;;4.40;3.20;;;21.60;99.90;;;22.49;100.00;97982.38;5063522;28;20448;-81
2022/08/05 07:05:26;;;;;;;6.10;3.77;;;21.60;99.90;;;22.46;100.00;97973.03;5062234;28;20509;-81
2022/08/05 07:08:06;;;;;;;3.80;3.00;;;21.70;99.90;;;22.47;100.00;97984.50;5063070;28;20496;-81
2022/08/05 07:10:39;;;;;;;4.47;3.10;;;21.70;99.90;;;22.53;100.00;97994.09;5061778;28;20477;-81
2022/08/05 07:19:36;;;;;;;6.47;3.30;;;21.70;99.90;;;22.52;100.00;98022.63;5059711;28;20538;-80
2022/08/05 07:22:24;;;;;;;5.27;2.97;;;21.70;99.90;;;22.54;100.00;98022.34;5058552;28;20444;-81
2022/08/05 07:24:59;;;;;;;7.70;3.67;;;21.70;99.90;;;22.51;100.00;98023.69;5062607;28;20842;-80
2022/08/05 07:27:48;;;;;;;3.37;2.97;;;21.80;99.90;;;22.49;100.00;98020.47;5062472;28;20520;-81
2022/08/05 07:30:32;;;;;;;6.90;3.90;;;21.80;99.90;;;22.53;100.00;98015.41;5062702;28;20439;-80
2022/08/05 07:33:05;;;;;;;6.70;3.60;;;21.70;99.90;;;22.59;100.00;98009.03;5061543;28;20437;-81
2022/08/05 07:35:39;;;;;;;5.20;3.30;;;21.70;99.90;;;22.61;100.00;98016.75;5061254;28;21502;-80
2022/08/05 07:38:28;;;;;;;4.53;3.07;;;21.60;99.90;;;22.65;100.00;98009.84;5060168;28;20507;-81
2022/08/05 07:41:03;;;;;;;4.57;3.73;;;21.70;99.90;;;22.67;100.00;98005.06;5059233;28;20441;-81
2022/08/05 07:43:53;;;;;;;5.17;3.10;;;21.70;99.90;;;22.70;100.00;98016.00;5061229;28;20499;-80
2022/08/05 07:46:25;;;;;;;8.67;3.20;;;21.60;99.90;;;22.69;100.00;98005.59;5058819;28;20814;-81
2022/08/05 07:48:58;;;;;;;9.27;4.03;;;21.70;99.90;;;22.68;100.00;98001.34;5060575;28;20460;-81
2022/08/05 07:51:34;;;;;;;3.87;3.30;;;21.70;99.90;;;22.65;100.00;97991.97;5059785;28;20460;-80
2022/08/05 07:54:06;;;;;;;4.10;3.70;;;21.70;99.90;;;22.66;100.00;97998.13;5057888;28;20472;-80
2022/08/05 07:56:37;;;;;;;14.83;3.67;;;21.70;99.90;;;22.64;100.00;98018.88;5058193;28;20450;-80
2022/08/05 07:59:26;;;;;;;9.83;3.00;;;21.70;99.90;;;22.65;100.00;98025.84;5060581;28;20537;-81
2022/08/05 08:02:07;;;;;;;5.77;3.93;;;21.80;99.90;;;22.67;100.00;98029.06;5061733;28;20532;-81
2022/08/05 08:04:47;;;;;;;5.90;4.13;;;21.70;99.90;;;22.70;100.00;98034.66;5060767;28;20865;-80
2022/08/05 08:07:17;;;;;;;7.13;3.10;;;21.70;99.90;;;22.70;100.00;98025.88;5060804;28;20866;-80
2022/08/05 08:09:51;;;;;;;4.97;3.30;;;21.80;99.90;;;22.71;100.00;98032.78;5062453;28;20535;-80
2022/08/05 08:12:23;;;;;;;6.83;3.00;;;21.70;99.90;;;22.70;100.00;98039.22;5060895;28;20445;-81
2022/08/05 08:15:09;;;;;;;5.37;3.50;;;21.70;99.90;;;22.67;100.00;98047.72;5060195;28;20455;-81
2022/08/05 08:17:44;;;;;;;4.20;2.93;;;21.70;99.90;;;22.65;100.00;98029.31;5062058;28;21045;-81
2022/08/05 08:20:22;;;;;;;3.40;2.97;;;21.80;99.90;;;22.70;100.00;98009.88;5061018;28;20456;-81
2022/08/05 08:23:12;;;;;;;3.83;2.80;;;21.80;99.90;;;22.70;100.00;97972.56;5061118;28;20466;-81
2022/08/05 08:26:00;;;;;;;5.30;3.10;;;21.90;99.90;;;22.69;100.00;97976.28;5060804;28;20513;-81
2022/08/05 08:28:32;;;;;;;4.00;3.37;;;21.80;99.90;;;22.61;100.00;98011.44;5059448;28;20503;-80
2022/08/05 08:31:06;;;;;;;4.63;2.97;;;21.60;99.90;;;22.61;100.00;98020.22;5061460;28;20457;-81
2022/08/05 08:33:35;;;;;;;5.97;2.90;;;21.70;99.90;;;22.62;100.00;98026.38;5061132;28;20967;-81
2022/08/05 08:36:09;;;;;;;4.00;3.20;;;21.80;99.90;;;22.66;100.00;98008.78;5060184;28;20950;-81
2022/08/05 08:38:57;;;;;;;7.83;3.00;;;21.80;99.90;;;22.67;100.00;97987.19;5061171;28;20541;-81
2022/08/05 08:41:34;;;;;;;6.47;3.30;;;21.70;99.90;;;22.66;100.00;97998.13;5061454;28;20448;-80
2022/08/05 08:44:25;;;;;;;8.00;2.97;;;21.70;99.90;;;22.59;100.00;98001.81;5060456;28;20480;-81
2022/08/05 08:47:18;;;;;;;3.33;3.03;;;21.70;99.90;;;22.50;100.00;98027.41;5061207;28;20449;-80
2022/08/05 08:50:12;;;;;;;3.13;2.50;;;21.60;99.90;;;22.53;100.00;98023.41;5060997;28;20463;-80
2022/08/05 08:53:07;;;;;;;4.00;2.77;;;21.60;99.90;;;22.53;100.00;98032.22;5059331;28;20484;-81
2022/08/05 08:55:41;;;;;;;3.27;2.53;;;21.70;99.90;;;22.54;100.00;98028.47;5059881;28;20479;-80
2022/08/05 08:58:31;;;;;;;4.13;2.90;;;21.60;99.90;;;22.55;100.00;98027.44;5060219;28;20476;-80
2022/08/05 09:01:12;;;;;;;3.10;2.60;;;21.70;99.90;;;22.52;100.00;98022.63;5061562;28;20460;-79
2022/08/05 09:03:48;;;;;;;7.63;3.10;;;21.70;99.90;;;22.53;100.00;98026.06;5059476;28;20496;-79
2022/08/05 09:06:23;;;;;;;4.50;2.80;;;21.70;99.90;;;22.48;100.00;98037.53;5059646;28;20483;-81
2022/08/05 09:09:01;;;;;;;8.30;2.83;;;21.60;99.90;;;22.54;100.00;98049.81;5060925;28;20459;-80
2022/08/05 09:11:32;;;;;;;4.97;2.90;;;21.70;99.90;;;22.56;100.00;98046.91;5060567;28;20468;-80
2022/08/05 09:14:22;;;;;;;4.30;2.90;;;21.70;99.90;;;22.56;100.00;98055.66;5060939;28;20473;-80
2022/08/05 09:17:12;;;;;;;3.40;3.00;;;21.70;99.90;;;22.57;100.00;98051.16;5060555;28;20441;-80
2022/08/05 09:20:01;;;;;;;3.30;2.90;;;21.70;99.90;;;22.63;100.00;98036.75;5060983;28;20485;-79
2022/08/05 09:23:09;;;;;;;11.37;3.60;;;21.80;99.90;;;22.65;100.00;98047.97;5060023;28;20443;-79
2022/08/05 09:25:51;;;;;;;4.10;3.03;;;21.80;99.90;;;22.64;100.00;98074.88;5057235;28;20448;-79
2022/08/05 09:28:36;;;;;;;3.40;3.07;;;21.80;99.90;;;22.65;100.00;98092.50;5057129;28;20437;-79
2022/08/05 09:31:07;;;;;;;9.37;3.40;;;21.80;99.90;;;22.69;100.00;98105.06;5058178;28;20445;-79
2022/08/05 09:33:59;;;;;;;4.83;3.20;;;21.80;99.90;;;22.64;100.00;98109.53;5057812;28;20452;-79
2022/08/05 09:36:45;;;;;;;2.80;2.53;;;21.70;99.90;;;22.70;100.00;98101.31;5056474;28;20455;-81
2022/08/05 09:39:24;;;;;;;3.70;3.00;;;21.90;99.90;;;22.73;100.00;98095.50;5058044;28;20480;-80
2022/08/05 09:42:16;;;;;;;4.10;2.87;;;21.80;99.90;;;22.78;100.00;98092.00;5059170;28;20557;-79
2022/08/05 09:44:53;;;;;;;3.90;2.60;;;21.90;99.90;;;22.86;100.00;98104.84;5060106;28;20449;-80
2022/08/05 09:47:27;;;;;;;5.87;2.73;;;22.00;99.90;;;22.87;100.00;98114.44;5061118;28;20441;-79
2022/08/05 09:50:20;;;;;;;6.80;3.07;;;22.10;99.90;;;22.94;100.00;98128.34;5060954;28;20874;-79
2022/08/05 09:53:08;;;;;;;3.93;2.73;;;22.10;99.90;;;23.01;100.00;98126.22;5064287;28;20527;-79
2022/08/05 09:55:59;;;;;;;2.80;2.40;;;22.20;99.90;;;23.02;100.00;98109.13;5064192;28;21040;-80
2022/08/05 09:58:41;;;;;;;4.20;3.30;;;22.10;99.90;;;23.06;100.00;98110.19;5063189;28;20456;-79
2022/08/05 10:01:13;;;;;;;5.40;3.00;;;22.30;99.90;;;23.11;100.00;98096.06;5060287;28;21034;-79
2022/08/05 10:04:03;;;;;;;3.10;2.77;;;22.40;99.90;;;23.02;100.00;98085.09;5061812;28;20962;-79
2022/08/05 10:06:40;;;;;;;4.90;2.80;;;22.30;99.90;;;23.02;100.00;98087.78;5064370;28;20472;-79
2022/08/05 10:09:23;;;;;;;3.53;3.20;;;22.40;99.90;;;23.09;100.00;98088.31;5062536;28;20484;-80
2022/08/05 10:12:08;;;;;;;3.77;3.10;;;22.40;99.90;;;23.15;100.00;98092.56;5063277;28;20486;-80
2022/08/05 10:15:15;;;;;;;7.40;3.13;;;22.30;99.90;;;23.13;100.00;98110.72;5063280;28;20457;-80
2022/08/05 10:18:13;;;;;;;5.10;2.97;;;22.30;99.90;;;23.18;100.00;98097.41;5065062;28;20447;-80
2022/08/05 10:20:47;;;;;;;3.47;2.90;;;22.40;99.90;;;23.21;100.00;98096.88;5066104;28;20537;-80
2022/08/05 10:23:20;;;;;;;4.17;3.17;;;22.40;99.90;;;23.27;100.00;98100.31;5064043;28;20944;-80
2022/08/05 10:26:12;;;;;;;4.17;2.50;;;22.50;99.90;;;23.28;100.00;98089.41;5064090;28;20514;-80
2022/08/05 10:28:44;;;;;;;4.77;3.23;;;22.50;99.90;;;23.38;100.00;98085.91;5065618;28;20493;-80
2022/08/05 10:31:17;;;;;;;10.67;3.27;;;22.60;99.90;;;23.50;100.00;98079.25;5062467;28;20572;-80
2022/08/05 10:34:07;;;;;;;3.00;2.70;;;22.70;99.90;;;23.51;100.00;98085.38;5062435;28;20453;-80
2022/08/05 10:36:38;;;;;;;4.43;3.27;;;22.70;99.90;;;23.58;100.00;98079.78;5063869;28;20469;-80
2022/08/05 10:39:14;;;;;;;6.00;3.20;;;22.70;99.90;;;23.58;100.00;98085.91;5060916;28;20493;-80
2022/08/05 10:42:02;;;;;;;5.13;2.73;;;22.70;99.90;;;23.61;100.00;98089.91;5061553;28;20447;-80
2022/08/05 10:44:33;;;;;;;8.30;3.17;;;22.80;99.90;;;23.67;100.00;98096.88;5059572;28;20452;-80
2022/08/05 10:47:12;;;;;;;4.30;2.90;;;22.90;99.90;;;23.73;100.00;98095.78;5059972;28;20975;-80
2022/08/05 10:50:08;;;;;;;3.57;2.93;;;23.00;99.90;;;23.85;100.00;98096.28;5061509;28;20441;-80
2022/08/05 10:52:58;;;;;;;7.20;2.60;;;23.10;99.90;;;23.87;100.00;98104.84;5060575;28;20540;-80
2022/08/05 10:55:29;;;;;;;4.83;3.40;;;23.10;99.90;;;23.85;100.00;98104.28;5062143;28;20453;-80
2022/08/05 10:58:19;;;;;;;11.93;3.70;;;23.10;99.90;;;23.87;100.00;98113.66;5062169;28;20552;-81
2022/08/05 11:00:48;;;;;;;4.17;3.00;;;23.00;99.90;;;23.95;100.00;98098.94;5062129;28;20857;-80
2022/08/05 11:03:32;;;;;;;5.03;3.30;;;23.30;99.90;;;23.89;100.00;98102.69;5061796;28;20453;-80
2022/08/05 11:06:08;;;;;;;7.00;3.47;;;23.30;99.90;;;23.95;100.00;98104.28;5064469;28;20451;-80
2022/08/05 11:09:18;;;;;;;3.73;3.10;;;23.20;99.90;;;23.97;100.00;98110.16;5060990;28;20457;-80